sensor_id;sensor_type;location;lat;lon;timestamp;P1;durP1;ratioP1;P2;durP2;ratioP2
26702;SDS011;14316;51.074;3.704;2023-03-08T00:01:16;23.55;;;18.38;;
26702;SDS011;14316;51.074;3.704;2023-03-08T00:03:43;23.55;;;18.55;;
26702;SDS011;14316;51.074;3.704;2023-03-08T00:06:10;22.75;;;16.88;;
26702;SDS011;14316;51.074;3.704;2023-03-08T00:08:38;21.05;;;16.08;;
26702;SDS011;14316;51.074;3.704;2023-03-08T00:11:07;23.10;;;16.90;;
26702;SDS011;14316;51.074;3.704;2023-03-08T00:13:34;21.83;;;16.52;;
26702;SDS011;14316;51.074;3.704;2023-03-08T00:16:00;21.33;;;16.83;;
26702;SDS011;14316;51.074;3.704;2023-03-08T00:18:27;23.75;;;16.58;;
26702;SDS011;14316;51.074;3.704;2023-03-08T00:21:03;21.17;;;16.40;;
26702;SDS011;14316;51.074;3.704;2023-03-08T00:23:30;20.08;;;15.27;;
26702;SDS011;14316;51.074;3.704;2023-03-08T00:25:56;16.85;;;13.38;;
26702;SDS011;14316;51.074;3.704;2023-03-08T00:28:22;16.63;;;13.63;;
26702;SDS011;14316;51.074;3.704;2023-03-08T00:30:57;16.08;;;13.27;;
26702;SDS011;14316;51.074;3.704;2023-03-08T00:33:26;12.98;;;11.40;;
26702;SDS011;14316;51.074;3.704;2023-03-08T00:35:56;15.32;;;11.65;;
26702;SDS011;14316;51.074;3.704;2023-03-08T00:38:22;14.45;;;11.15;;
26702;SDS011;14316;51.074;3.704;2023-03-08T00:40:48;13.25;;;11.30;;
26702;SDS011;14316;51.074;3.704;2023-03-08T00:43:14;12.80;;;10.15;;
26702;SDS011;14316;51.074;3.704;2023-03-08T00:45:40;11.65;;;9.35;;
26702;SDS011;14316;51.074;3.704;2023-03-08T00:48:05;11.82;;;10.35;;
26702;SDS011;14316;51.074;3.704;2023-03-08T00:50:31;11.27;;;9.90;;
26702;SDS011;14316;51.074;3.704;2023-03-08T00:52:57;11.73;;;9.68;;
26702;SDS011;14316;51.074;3.704;2023-03-08T00:55:22;12.02;;;10.48;;
26702;SDS011;14316;51.074;3.704;2023-03-08T00:57:49;12.75;;;10.60;;
26702;SDS011;14316;51.074;3.704;2023-03-08T01:00:15;14.02;;;10.90;;
26702;SDS011;14316;51.074;3.704;2023-03-08T01:02:41;13.07;;;10.85;;
26702;SDS011;14316;51.074;3.704;2023-03-08T01:05:07;15.40;;;12.57;;
26702;SDS011;14316;51.074;3.704;2023-03-08T01:07:33;16.00;;;13.05;;
26702;SDS011;14316;51.074;3.704;2023-03-08T01:10:00;17.27;;;13.85;;
26702;SDS011;14316;51.074;3.704;2023-03-08T01:12:27;17.25;;;13.52;;
26702;SDS011;14316;51.074;3.704;2023-03-08T01:14:53;15.15;;;13.05;;
26702;SDS011;14316;51.074;3.704;2023-03-08T01:17:19;16.17;;;13.40;;
26702;SDS011;14316;51.074;3.704;2023-03-08T01:19:44;16.05;;;13.70;;
26702;SDS011;14316;51.074;3.704;2023-03-08T01:22:11;16.92;;;13.90;;
26702;SDS011;14316;51.074;3.704;2023-03-08T01:24:36;18.95;;;14.55;;
26702;SDS011;14316;51.074;3.704;2023-03-08T01:27:02;19.23;;;15.05;;
26702;SDS011;14316;51.074;3.704;2023-03-08T01:29:28;19.02;;;14.65;;
26702;SDS011;14316;51.074;3.704;2023-03-08T01:31:53;20.55;;;15.13;;
26702;SDS011;14316;51.074;3.704;2023-03-08T01:34:19;18.15;;;15.18;;
26702;SDS011;14316;51.074;3.704;2023-03-08T01:36:45;16.77;;;14.13;;
26702;SDS011;14316;51.074;3.704;2023-03-08T01:39:11;18.45;;;14.65;;
26702;SDS011;14316;51.074;3.704;2023-03-08T01:41:37;18.23;;;15.20;;
26702;SDS011;14316;51.074;3.704;2023-03-08T01:44:02;20.88;;;16.73;;
26702;SDS011;14316;51.074;3.704;2023-03-08T01:46:32;21.73;;;17.52;;
26702;SDS011;14316;51.074;3.704;2023-03-08T01:51:36;21.08;;;16.75;;
26702;SDS011;14316;51.074;3.704;2023-03-08T01:54:50;21.00;;;16.70;;
26702;SDS011;14316;51.074;3.704;2023-03-08T01:57:01;19.20;;;15.73;;
26702;SDS011;14316;51.074;3.704;2023-03-08T01:59:55;19.13;;;15.90;;
26702;SDS011;14316;51.074;3.704;2023-03-08T02:02:24;16.98;;;14.75;;
26702;SDS011;14316;51.074;3.704;2023-03-08T02:04:55;19.05;;;16.15;;
26702;SDS011;14316;51.074;3.704;2023-03-08T02:07:20;19.65;;;16.13;;
26702;SDS011;14316;51.074;3.704;2023-03-08T02:09:47;19.08;;;15.15;;
26702;SDS011;14316;51.074;3.704;2023-03-08T02:12:14;17.38;;;14.88;;
26702;SDS011;14316;51.074;3.704;2023-03-08T02:14:40;18.58;;;15.35;;
26702;SDS011;14316;51.074;3.704;2023-03-08T02:17:07;19.02;;;15.75;;
26702;SDS011;14316;51.074;3.704;2023-03-08T02:22:07;18.40;;;15.23;;
26702;SDS011;14316;51.074;3.704;2023-03-08T02:24:35;19.10;;;15.00;;
26702;SDS011;14316;51.074;3.704;2023-03-08T02:27:03;18.90;;;15.30;;
26702;SDS011;14316;51.074;3.704;2023-03-08T02:29:32;17.00;;;13.85;;
26702;SDS011;14316;51.074;3.704;2023-03-08T02:31:57;21.20;;;15.02;;
26702;SDS011;14316;51.074;3.704;2023-03-08T02:34:23;18.00;;;15.40;;
26702;SDS011;14316;51.074;3.704;2023-03-08T02:36:49;19.27;;;14.93;;
26702;SDS011;14316;51.074;3.704;2023-03-08T02:39:14;17.13;;;14.88;;
26702;SDS011;14316;51.074;3.704;2023-03-08T02:41:40;18.05;;;14.88;;
26702;SDS011;14316;51.074;3.704;2023-03-08T02:44:05;17.25;;;14.23;;
26702;SDS011;14316;51.074;3.704;2023-03-08T02:46:32;17.42;;;15.10;;
26702;SDS011;14316;51.074;3.704;2023-03-08T02:48:59;18.38;;;15.05;;
26702;SDS011;14316;51.074;3.704;2023-03-08T02:51:24;16.83;;;14.05;;
26702;SDS011;14316;51.074;3.704;2023-03-08T02:53:50;17.48;;;14.55;;
26702;SDS011;14316;51.074;3.704;2023-03-08T02:56:16;17.15;;;14.90;;
26702;SDS011;14316;51.074;3.704;2023-03-08T02:58:42;18.58;;;15.30;;
26702;SDS011;14316;51.074;3.704;2023-03-08T03:01:11;14.88;;;13.27;;
26702;SDS011;14316;51.074;3.704;2023-03-08T03:03:38;18.73;;;14.23;;
26702;SDS011;14316;51.074;3.704;2023-03-08T03:06:04;17.65;;;13.90;;
26702;SDS011;14316;51.074;3.704;2023-03-08T03:11:09;16.67;;;13.25;;
26702;SDS011;14316;51.074;3.704;2023-03-08T03:13:38;15.68;;;13.70;;
26702;SDS011;14316;51.074;3.704;2023-03-08T03:16:06;17.25;;;14.20;;
26702;SDS011;14316;51.074;3.704;2023-03-08T03:18:32;15.77;;;13.25;;
26702;SDS011;14316;51.074;3.704;2023-03-08T03:21:04;17.55;;;13.75;;
26702;SDS011;14316;51.074;3.704;2023-03-08T03:23:32;16.60;;;12.52;;
26702;SDS011;14316;51.074;3.704;2023-03-08T03:26:04;17.60;;;14.52;;
26702;SDS011;14316;51.074;3.704;2023-03-08T03:28:30;15.57;;;13.70;;
26702;SDS011;14316;51.074;3.704;2023-03-08T03:30:56;16.75;;;13.90;;
26702;SDS011;14316;51.074;3.704;2023-03-08T03:33:22;19.58;;;15.65;;
26702;SDS011;14316;51.074;3.704;2023-03-08T03:35:48;16.73;;;13.50;;
26702;SDS011;14316;51.074;3.704;2023-03-08T03:38:14;18.80;;;15.35;;
26702;SDS011;14316;51.074;3.704;2023-03-08T03:40:39;19.58;;;15.10;;
26702;SDS011;14316;51.074;3.704;2023-03-08T03:43:05;17.65;;;13.40;;
26702;SDS011;14316;51.074;3.704;2023-03-08T03:45:31;18.65;;;14.63;;
26702;SDS011;14316;51.074;3.704;2023-03-08T03:47:57;18.23;;;14.48;;
26702;SDS011;14316;51.074;3.704;2023-03-08T03:50:23;17.80;;;13.85;;
26702;SDS011;14316;51.074;3.704;2023-03-08T03:52:48;17.95;;;13.80;;
26702;SDS011;14316;51.074;3.704;2023-03-08T03:55:14;17.33;;;13.60;;
26702;SDS011;14316;51.074;3.704;2023-03-08T03:57:40;17.77;;;13.90;;
26702;SDS011;14316;51.074;3.704;2023-03-08T04:00:06;19.17;;;13.75;;
26702;SDS011;14316;51.074;3.704;2023-03-08T04:02:36;19.02;;;14.70;;
26702;SDS011;14316;51.074;3.704;2023-03-08T04:05:01;17.35;;;13.35;;
26702;SDS011;14316;51.074;3.704;2023-03-08T04:07:27;17.75;;;14.25;;
26702;SDS011;14316;51.074;3.704;2023-03-08T04:09:52;21.42;;;15.40;;
26702;SDS011;14316;51.074;3.704;2023-03-08T04:12:18;17.33;;;14.50;;
26702;SDS011;14316;51.074;3.704;2023-03-08T04:14:44;20.52;;;16.33;;
26702;SDS011;14316;51.074;3.704;2023-03-08T04:17:10;21.17;;;15.38;;
26702;SDS011;14316;51.074;3.704;2023-03-08T04:19:36;22.13;;;16.52;;
26702;SDS011;14316;51.074;3.704;2023-03-08T04:22:01;19.95;;;15.45;;
26702;SDS011;14316;51.074;3.704;2023-03-08T04:24:28;20.88;;;16.60;;
26702;SDS011;14316;51.074;3.704;2023-03-08T04:26:54;22.48;;;17.98;;
26702;SDS011;14316;51.074;3.704;2023-03-08T04:29:19;22.98;;;16.95;;
26702;SDS011;14316;51.074;3.704;2023-03-08T04:31:45;25.55;;;16.80;;
26702;SDS011;14316;51.074;3.704;2023-03-08T04:34:10;24.45;;;17.70;;
26702;SDS011;14316;51.074;3.704;2023-03-08T04:36:37;22.05;;;16.80;;
26702;SDS011;14316;51.074;3.704;2023-03-08T04:39:03;19.95;;;15.75;;
26702;SDS011;14316;51.074;3.704;2023-03-08T04:41:28;21.52;;;15.93;;
26702;SDS011;14316;51.074;3.704;2023-03-08T04:43:55;19.95;;;14.80;;
26702;SDS011;14316;51.074;3.704;2023-03-08T04:46:23;21.00;;;15.55;;
26702;SDS011;14316;51.074;3.704;2023-03-08T04:48:51;17.38;;;13.70;;
26702;SDS011;14316;51.074;3.704;2023-03-08T04:51:20;19.88;;;14.30;;
26702;SDS011;14316;51.074;3.704;2023-03-08T04:53:50;17.50;;;13.18;;
26702;SDS011;14316;51.074;3.704;2023-03-08T04:56:16;18.75;;;13.80;;
26702;SDS011;14316;51.074;3.704;2023-03-08T04:58:42;20.00;;;14.45;;
26702;SDS011;14316;51.074;3.704;2023-03-08T05:03:47;18.20;;;12.30;;
26702;SDS011;14316;51.074;3.704;2023-03-08T05:06:13;19.80;;;14.60;;
26702;SDS011;14316;51.074;3.704;2023-03-08T05:08:39;19.65;;;13.70;;
26702;SDS011;14316;51.074;3.704;2023-03-08T05:11:05;18.75;;;13.50;;
26702;SDS011;14316;51.074;3.704;2023-03-08T05:13:33;17.20;;;12.40;;
26702;SDS011;14316;51.074;3.704;2023-03-08T05:16:01;17.02;;;12.73;;
26702;SDS011;14316;51.074;3.704;2023-03-08T05:18:28;20.10;;;13.52;;
26702;SDS011;14316;51.074;3.704;2023-03-08T05:20:58;16.55;;;12.70;;
26702;SDS011;14316;51.074;3.704;2023-03-08T05:23:26;17.25;;;12.60;;
26702;SDS011;14316;51.074;3.704;2023-03-08T05:25:54;15.90;;;12.30;;
26702;SDS011;14316;51.074;3.704;2023-03-08T05:28:22;16.65;;;11.55;;
26702;SDS011;14316;51.074;3.704;2023-03-08T05:30:48;13.63;;;11.00;;
26702;SDS011;14316;51.074;3.704;2023-03-08T05:33:15;14.32;;;11.38;;
26702;SDS011;14316;51.074;3.704;2023-03-08T05:35:41;14.55;;;11.15;;
26702;SDS011;14316;51.074;3.704;2023-03-08T05:38:08;13.45;;;10.80;;
26702;SDS011;14316;51.074;3.704;2023-03-08T05:40:34;14.30;;;10.73;;
26702;SDS011;14316;51.074;3.704;2023-03-08T05:43:01;12.75;;;10.63;;
26702;SDS011;14316;51.074;3.704;2023-03-08T05:45:27;11.52;;;9.27;;
26702;SDS011;14316;51.074;3.704;2023-03-08T05:47:52;13.95;;;9.75;;
26702;SDS011;14316;51.074;3.704;2023-03-08T05:50:18;14.38;;;10.40;;
26702;SDS011;14316;51.074;3.704;2023-03-08T05:52:44;12.70;;;9.70;;
26702;SDS011;14316;51.074;3.704;2023-03-08T05:55:11;12.65;;;10.13;;
26702;SDS011;14316;51.074;3.704;2023-03-08T05:57:37;14.98;;;10.07;;
26702;SDS011;14316;51.074;3.704;2023-03-08T06:00:03;11.68;;;9.23;;
26702;SDS011;14316;51.074;3.704;2023-03-08T06:02:30;12.35;;;10.13;;
26702;SDS011;14316;51.074;3.704;2023-03-08T06:04:55;11.23;;;9.75;;
26702;SDS011;14316;51.074;3.704;2023-03-08T06:07:21;13.38;;;10.32;;
26702;SDS011;14316;51.074;3.704;2023-03-08T06:09:46;14.00;;;10.43;;
26702;SDS011;14316;51.074;3.704;2023-03-08T06:12:12;13.20;;;10.35;;
26702;SDS011;14316;51.074;3.704;2023-03-08T06:14:38;12.57;;;9.93;;
26702;SDS011;14316;51.074;3.704;2023-03-08T06:17:04;11.38;;;9.40;;
26702;SDS011;14316;51.074;3.704;2023-03-08T06:19:30;10.98;;;9.25;;
26702;SDS011;14316;51.074;3.704;2023-03-08T06:21:56;11.63;;;9.93;;
26702;SDS011;14316;51.074;3.704;2023-03-08T06:24:22;12.38;;;10.65;;
26702;SDS011;14316;51.074;3.704;2023-03-08T06:26:48;14.70;;;12.13;;
26702;SDS011;14316;51.074;3.704;2023-03-08T06:29:14;15.35;;;12.52;;
26702;SDS011;14316;51.074;3.704;2023-03-08T06:31:43;15.32;;;12.25;;
26702;SDS011;14316;51.074;3.704;2023-03-08T06:34:08;15.18;;;12.90;;
26702;SDS011;14316;51.074;3.704;2023-03-08T06:36:35;16.23;;;13.45;;
26702;SDS011;14316;51.074;3.704;2023-03-08T06:39:02;17.15;;;13.95;;
26702;SDS011;14316;51.074;3.704;2023-03-08T06:41:28;16.40;;;13.50;;
26702;SDS011;14316;51.074;3.704;2023-03-08T06:43:54;15.15;;;13.05;;
26702;SDS011;14316;51.074;3.704;2023-03-08T06:46:20;13.93;;;11.70;;
26702;SDS011;14316;51.074;3.704;2023-03-08T06:48:46;16.45;;;12.73;;
26702;SDS011;14316;51.074;3.704;2023-03-08T06:51:13;15.95;;;11.90;;
26702;SDS011;14316;51.074;3.704;2023-03-08T06:53:40;14.35;;;11.63;;
26702;SDS011;14316;51.074;3.704;2023-03-08T06:56:06;12.90;;;11.13;;
26702;SDS011;14316;51.074;3.704;2023-03-08T06:58:34;13.27;;;11.02;;
26702;SDS011;14316;51.074;3.704;2023-03-08T07:01:00;14.30;;;11.05;;
26702;SDS011;14316;51.074;3.704;2023-03-08T07:03:28;12.65;;;10.50;;
26702;SDS011;14316;51.074;3.704;2023-03-08T07:05:58;12.15;;;10.38;;
26702;SDS011;14316;51.074;3.704;2023-03-08T07:08:24;12.38;;;10.45;;
26702;SDS011;14316;51.074;3.704;2023-03-08T07:10:50;11.20;;;9.90;;
26702;SDS011;14316;51.074;3.704;2023-03-08T07:13:16;12.18;;;10.18;;
26702;SDS011;14316;51.074;3.704;2023-03-08T07:15:42;10.80;;;9.60;;
26702;SDS011;14316;51.074;3.704;2023-03-08T07:18:08;11.55;;;9.82;;
26702;SDS011;14316;51.074;3.704;2023-03-08T07:20:34;9.73;;;8.73;;
26702;SDS011;14316;51.074;3.704;2023-03-08T07:22:59;9.48;;;8.20;;
26702;SDS011;14316;51.074;3.704;2023-03-08T07:25:26;9.85;;;8.05;;
26702;SDS011;14316;51.074;3.704;2023-03-08T07:27:52;8.23;;;7.38;;
26702;SDS011;14316;51.074;3.704;2023-03-08T07:30:18;8.82;;;7.20;;
26702;SDS011;14316;51.074;3.704;2023-03-08T07:32:44;8.20;;;7.40;;
26702;SDS011;14316;51.074;3.704;2023-03-08T07:35:11;8.15;;;7.35;;
26702;SDS011;14316;51.074;3.704;2023-03-08T07:37:38;9.20;;;8.30;;
26702;SDS011;14316;51.074;3.704;2023-03-08T07:40:05;13.75;;;10.77;;
26702;SDS011;14316;51.074;3.704;2023-03-08T07:42:31;9.68;;;8.68;;
26702;SDS011;14316;51.074;3.704;2023-03-08T07:44:57;9.98;;;8.98;;
26702;SDS011;14316;51.074;3.704;2023-03-08T07:47:23;8.73;;;7.70;;
26702;SDS011;14316;51.074;3.704;2023-03-08T07:49:49;8.88;;;7.97;;
26702;SDS011;14316;51.074;3.704;2023-03-08T07:52:14;9.05;;;7.82;;
26702;SDS011;14316;51.074;3.704;2023-03-08T07:54:40;9.27;;;7.40;;
26702;SDS011;14316;51.074;3.704;2023-03-08T07:57:09;8.40;;;7.47;;
26702;SDS011;14316;51.074;3.704;2023-03-08T08:02:07;8.68;;;7.75;;
26702;SDS011;14316;51.074;3.704;2023-03-08T08:04:37;8.30;;;7.15;;
26702;SDS011;14316;51.074;3.704;2023-03-08T08:07:04;8.63;;;7.78;;
26702;SDS011;14316;51.074;3.704;2023-03-08T08:09:29;9.10;;;8.20;;
26702;SDS011;14316;51.074;3.704;2023-03-08T08:11:55;10.20;;;9.20;;
26702;SDS011;14316;51.074;3.704;2023-03-08T08:14:21;9.32;;;8.43;;
26702;SDS011;14316;51.074;3.704;2023-03-08T08:16:47;9.63;;;8.55;;
26702;SDS011;14316;51.074;3.704;2023-03-08T08:19:12;10.98;;;9.88;;
26702;SDS011;14316;51.074;3.704;2023-03-08T08:21:39;14.90;;;12.30;;
26702;SDS011;14316;51.074;3.704;2023-03-08T08:24:05;10.75;;;9.65;;
26702;SDS011;14316;51.074;3.704;2023-03-08T08:26:31;9.05;;;8.15;;
26702;SDS011;14316;51.074;3.704;2023-03-08T08:28:57;8.55;;;7.63;;
26702;SDS011;14316;51.074;3.704;2023-03-08T08:31:24;8.50;;;7.53;;
26702;SDS011;14316;51.074;3.704;2023-03-08T08:33:55;8.85;;;7.50;;
26702;SDS011;14316;51.074;3.704;2023-03-08T08:36:21;8.45;;;7.15;;
26702;SDS011;14316;51.074;3.704;2023-03-08T08:38:47;8.13;;;7.32;;
26702;SDS011;14316;51.074;3.704;2023-03-08T08:41:13;7.72;;;6.90;;
26702;SDS011;14316;51.074;3.704;2023-03-08T08:43:40;9.10;;;7.22;;
26702;SDS011;14316;51.074;3.704;2023-03-08T08:46:07;8.52;;;7.65;;
26702;SDS011;14316;51.074;3.704;2023-03-08T08:48:33;9.85;;;8.85;;
26702;SDS011;14316;51.074;3.704;2023-03-08T08:51:00;10.30;;;9.20;;
26702;SDS011;14316;51.074;3.704;2023-03-08T08:53:26;9.77;;;8.60;;
26702;SDS011;14316;51.074;3.704;2023-03-08T08:55:52;10.23;;;9.32;;
26702;SDS011;14316;51.074;3.704;2023-03-08T08:58:17;11.35;;;10.25;;
26702;SDS011;14316;51.074;3.704;2023-03-08T09:00:43;16.95;;;15.55;;
26702;SDS011;14316;51.074;3.704;2023-03-08T09:03:11;13.27;;;11.93;;
26702;SDS011;14316;51.074;3.704;2023-03-08T09:05:39;12.90;;;11.43;;
26702;SDS011;14316;51.074;3.704;2023-03-08T09:08:06;12.95;;;11.75;;
26702;SDS011;14316;51.074;3.704;2023-03-08T09:10:33;12.98;;;11.77;;
26702;SDS011;14316;51.074;3.704;2023-03-08T09:13:00;13.45;;;12.15;;
26702;SDS011;14316;51.074;3.704;2023-03-08T09:15:26;12.77;;;11.57;;
26702;SDS011;14316;51.074;3.704;2023-03-08T09:17:52;13.98;;;12.50;;
26702;SDS011;14316;51.074;3.704;2023-03-08T09:20:18;12.75;;;11.60;;
26702;SDS011;14316;51.074;3.704;2023-03-08T09:22:44;11.20;;;10.15;;
26702;SDS011;14316;51.074;3.704;2023-03-08T09:25:10;11.60;;;10.48;;
26702;SDS011;14316;51.074;3.704;2023-03-08T09:27:37;12.40;;;11.27;;
26702;SDS011;14316;51.074;3.704;2023-03-08T09:30:04;12.18;;;11.07;;
26702;SDS011;14316;51.074;3.704;2023-03-08T09:32:33;12.35;;;11.27;;
26702;SDS011;14316;51.074;3.704;2023-03-08T09:35:00;10.45;;;9.55;;
26702;SDS011;14316;51.074;3.704;2023-03-08T09:37:26;9.27;;;8.38;;
26702;SDS011;14316;51.074;3.704;2023-03-08T09:39:51;10.18;;;9.10;;
26702;SDS011;14316;51.074;3.704;2023-03-08T09:42:22;9.35;;;8.55;;
26702;SDS011;14316;51.074;3.704;2023-03-08T09:47:43;9.07;;;8.32;;
26702;SDS011;14316;51.074;3.704;2023-03-08T09:51:04;9.77;;;8.90;;
26702;SDS011;14316;51.074;3.704;2023-03-08T09:56:24;9.85;;;8.95;;
26702;SDS011;14316;51.074;3.704;2023-03-08T10:07:01;8.48;;;7.80;;
26702;SDS011;14316;51.074;3.704;2023-03-08T10:09:40;8.80;;;8.00;;
26702;SDS011;14316;51.074;3.704;2023-03-08T10:14:49;9.40;;;8.60;;
26702;SDS011;14316;51.074;3.704;2023-03-08T10:17:43;9.32;;;8.52;;
26702;SDS011;14316;51.074;3.704;2023-03-08T10:22:46;10.20;;;9.30;;
26702;SDS011;14316;51.074;3.704;2023-03-08T10:25:21;10.40;;;9.45;;
26702;SDS011;14316;51.074;3.704;2023-03-08T10:27:59;10.38;;;9.35;;
26702;SDS011;14316;51.074;3.704;2023-03-08T10:30:33;10.05;;;9.15;;
26702;SDS011;14316;51.074;3.704;2023-03-08T10:33:02;10.05;;;9.05;;
26702;SDS011;14316;51.074;3.704;2023-03-08T10:35:35;9.43;;;8.63;;
26702;SDS011;14316;51.074;3.704;2023-03-08T10:38:20;9.50;;;8.70;;
26702;SDS011;14316;51.074;3.704;2023-03-08T10:40:46;10.02;;;9.02;;
26702;SDS011;14316;51.074;3.704;2023-03-08T10:43:45;10.82;;;9.82;;
26702;SDS011;14316;51.074;3.704;2023-03-08T10:46:10;11.18;;;10.18;;
26702;SDS011;14316;51.074;3.704;2023-03-08T10:51:04;10.73;;;9.77;;
26702;SDS011;14316;51.074;3.704;2023-03-08T10:53:31;11.25;;;10.23;;
26702;SDS011;14316;51.074;3.704;2023-03-08T10:55:58;10.35;;;9.45;;
26702;SDS011;14316;51.074;3.704;2023-03-08T10:58:35;10.48;;;9.57;;
26702;SDS011;14316;51.074;3.704;2023-03-08T11:01:03;11.52;;;10.52;;
26702;SDS011;14316;51.074;3.704;2023-03-08T11:04:05;12.32;;;11.13;;
26702;SDS011;14316;51.074;3.704;2023-03-08T11:06:39;12.13;;;11.02;;
26702;SDS011;14316;51.074;3.704;2023-03-08T11:12:02;12.43;;;11.32;;
26702;SDS011;14316;51.074;3.704;2023-03-08T11:14:28;14.05;;;12.65;;
26702;SDS011;14316;51.074;3.704;2023-03-08T11:17:00;13.15;;;11.95;;
26702;SDS011;14316;51.074;3.704;2023-03-08T11:22:36;13.73;;;12.43;;
26702;SDS011;14316;51.074;3.704;2023-03-08T11:33:20;15.40;;;13.90;;
26702;SDS011;14316;51.074;3.704;2023-03-08T11:38:57;15.80;;;14.30;;
26702;SDS011;14316;51.074;3.704;2023-03-08T11:44:53;16.88;;;15.18;;
26702;SDS011;14316;51.074;3.704;2023-03-08T11:47:46;18.15;;;16.42;;
26702;SDS011;14316;51.074;3.704;2023-03-08T11:50:25;17.55;;;15.85;;
26702;SDS011;14316;51.074;3.704;2023-03-08T11:52:58;16.70;;;15.10;;
26702;SDS011;14316;51.074;3.704;2023-03-08T11:58:57;16.55;;;14.85;;
26702;SDS011;14316;51.074;3.704;2023-03-08T12:01:31;18.00;;;16.30;;
26702;SDS011;14316;51.074;3.704;2023-03-08T12:04:08;16.73;;;15.13;;
26702;SDS011;14316;51.074;3.704;2023-03-08T12:06:56;18.50;;;16.67;;
26702;SDS011;14316;51.074;3.704;2023-03-08T12:09:31;17.13;;;15.43;;
26702;SDS011;14316;51.074;3.704;2023-03-08T12:12:04;16.88;;;15.18;;
26702;SDS011;14316;51.074;3.704;2023-03-08T12:14:38;17.20;;;15.50;;
26702;SDS011;14316;51.074;3.704;2023-03-08T12:17:22;17.55;;;15.75;;
26702;SDS011;14316;51.074;3.704;2023-03-08T12:19:51;18.35;;;16.55;;
26702;SDS011;14316;51.074;3.704;2023-03-08T12:24:54;18.48;;;16.70;;
26702;SDS011;14316;51.074;3.704;2023-03-08T12:28:00;18.10;;;16.30;;
26702;SDS011;14316;51.074;3.704;2023-03-08T12:32:52;18.70;;;16.90;;
26702;SDS011;14316;51.074;3.704;2023-03-08T12:40:50;20.35;;;18.23;;
26702;SDS011;14316;51.074;3.704;2023-03-08T12:46:08;19.00;;;17.13;;
26702;SDS011;14316;51.074;3.704;2023-03-08T12:58:53;19.77;;;17.88;;
26702;SDS011;14316;51.074;3.704;2023-03-08T13:01:32;21.00;;;18.80;;
26702;SDS011;14316;51.074;3.704;2023-03-08T13:03:59;22.95;;;20.63;;
26702;SDS011;14316;51.074;3.704;2023-03-08T13:06:35;23.60;;;21.20;;
26702;SDS011;14316;51.074;3.704;2023-03-08T13:09:19;24.95;;;22.45;;
26702;SDS011;14316;51.074;3.704;2023-03-08T13:14:37;25.45;;;22.92;;
26702;SDS011;14316;51.074;3.704;2023-03-08T13:20:17;29.80;;;26.70;;
26702;SDS011;14316;51.074;3.704;2023-03-08T13:26:29;29.58;;;26.15;;
26702;SDS011;14316;51.074;3.704;2023-03-08T13:28:34;30.10;;;26.90;;
26702;SDS011;14316;51.074;3.704;2023-03-08T13:31:12;31.85;;;27.73;;
26702;SDS011;14316;51.074;3.704;2023-03-08T13:33:48;29.63;;;26.52;;
26702;SDS011;14316;51.074;3.704;2023-03-08T13:36:31;30.48;;;27.27;;
26702;SDS011;14316;51.074;3.704;2023-03-08T13:41:32;30.40;;;27.10;;
26702;SDS011;14316;51.074;3.704;2023-03-08T13:46:59;26.63;;;23.83;;
26702;SDS011;14316;51.074;3.704;2023-03-08T13:49:32;26.00;;;23.23;;
26702;SDS011;14316;51.074;3.704;2023-03-08T13:52:14;26.20;;;23.45;;
26702;SDS011;14316;51.074;3.704;2023-03-08T13:54:47;25.60;;;23.00;;
26702;SDS011;14316;51.074;3.704;2023-03-08T13:57:23;25.38;;;22.77;;
26702;SDS011;14316;51.074;3.704;2023-03-08T13:59:58;26.38;;;22.77;;
26702;SDS011;14316;51.074;3.704;2023-03-08T14:02:26;25.80;;;23.17;;
26702;SDS011;14316;51.074;3.704;2023-03-08T14:04:54;27.17;;;24.27;;
26702;SDS011;14316;51.074;3.704;2023-03-08T14:07:24;28.55;;;25.50;;
26702;SDS011;14316;51.074;3.704;2023-03-08T14:09:55;29.63;;;25.83;;
26702;SDS011;14316;51.074;3.704;2023-03-08T14:12:22;28.98;;;25.75;;
26702;SDS011;14316;51.074;3.704;2023-03-08T14:14:56;29.23;;;26.05;;
26702;SDS011;14316;51.074;3.704;2023-03-08T14:17:26;27.55;;;24.65;;
26702;SDS011;14316;51.074;3.704;2023-03-08T14:19:54;29.42;;;26.23;;
26702;SDS011;14316;51.074;3.704;2023-03-08T14:22:22;27.55;;;24.73;;
26702;SDS011;14316;51.074;3.704;2023-03-08T14:24:51;33.10;;;27.52;;
26702;SDS011;14316;51.074;3.704;2023-03-08T14:27:30;29.90;;;26.60;;
26702;SDS011;14316;51.074;3.704;2023-03-08T14:30:09;28.83;;;25.73;;
26702;SDS011;14316;51.074;3.704;2023-03-08T14:35:39;36.50;;;29.45;;
26702;SDS011;14316;51.074;3.704;2023-03-08T14:38:51;34.97;;;30.05;;
26702;SDS011;14316;51.074;3.704;2023-03-08T14:40:59;36.13;;;30.55;;
26702;SDS011;14316;51.074;3.704;2023-03-08T14:43:30;33.35;;;29.30;;
26702;SDS011;14316;51.074;3.704;2023-03-08T14:45:57;35.15;;;30.25;;
26702;SDS011;14316;51.074;3.704;2023-03-08T14:48:30;35.05;;;29.73;;
26702;SDS011;14316;51.074;3.704;2023-03-08T14:54:00;38.63;;;30.75;;
26702;SDS011;14316;51.074;3.704;2023-03-08T14:56:28;35.25;;;29.73;;
26702;SDS011;14316;51.074;3.704;2023-03-08T14:58:54;36.63;;;29.88;;
26702;SDS011;14316;51.074;3.704;2023-03-08T15:01:34;37.22;;;29.52;;
26702;SDS011;14316;51.074;3.704;2023-03-08T15:04:02;34.78;;;29.35;;
26702;SDS011;14316;51.074;3.704;2023-03-08T15:06:35;34.30;;;29.17;;
26702;SDS011;14316;51.074;3.704;2023-03-08T15:09:05;34.30;;;29.17;;
26702;SDS011;14316;51.074;3.704;2023-03-08T15:11:32;34.38;;;29.48;;
26702;SDS011;14316;51.074;3.704;2023-03-08T15:13:58;35.97;;;30.88;;
26702;SDS011;14316;51.074;3.704;2023-03-08T15:16:24;32.65;;;27.77;;
26702;SDS011;14316;51.074;3.704;2023-03-08T15:18:50;33.45;;;26.80;;
26702;SDS011;14316;51.074;3.704;2023-03-08T15:21:17;35.75;;;29.50;;
26702;SDS011;14316;51.074;3.704;2023-03-08T15:23:46;37.13;;;30.83;;
26702;SDS011;14316;51.074;3.704;2023-03-08T15:26:13;35.47;;;29.33;;
26702;SDS011;14316;51.074;3.704;2023-03-08T15:28:48;38.70;;;30.77;;
26702;SDS011;14316;51.074;3.704;2023-03-08T15:31:13;37.20;;;30.70;;
26702;SDS011;14316;51.074;3.704;2023-03-08T15:33:39;35.30;;;29.48;;
26702;SDS011;14316;51.074;3.704;2023-03-08T15:36:05;34.67;;;29.38;;
26702;SDS011;14316;51.074;3.704;2023-03-08T15:38:32;35.33;;;29.23;;
26702;SDS011;14316;51.074;3.704;2023-03-08T15:40:58;36.45;;;29.98;;
26702;SDS011;14316;51.074;3.704;2023-03-08T15:43:24;36.33;;;29.38;;
26702;SDS011;14316;51.074;3.704;2023-03-08T15:45:49;35.67;;;28.90;;
26702;SDS011;14316;51.074;3.704;2023-03-08T15:48:16;34.65;;;26.85;;
26702;SDS011;14316;51.074;3.704;2023-03-08T15:50:43;31.27;;;25.60;;
26702;SDS011;14316;51.074;3.704;2023-03-08T15:53:09;36.13;;;27.85;;
26702;SDS011;14316;51.074;3.704;2023-03-08T15:55:36;36.42;;;28.80;;
26702;SDS011;14316;51.074;3.704;2023-03-08T15:58:03;36.80;;;29.02;;
26702;SDS011;14316;51.074;3.704;2023-03-08T16:00:28;35.85;;;29.10;;
26702;SDS011;14316;51.074;3.704;2023-03-08T16:02:54;35.30;;;28.35;;
26702;SDS011;14316;51.074;3.704;2023-03-08T16:05:22;34.78;;;27.95;;
26702;SDS011;14316;51.074;3.704;2023-03-08T16:07:56;33.03;;;26.92;;
26702;SDS011;14316;51.074;3.704;2023-03-08T16:10:26;33.72;;;28.67;;
26702;SDS011;14316;51.074;3.704;2023-03-08T16:12:54;34.58;;;27.92;;
26702;SDS011;14316;51.074;3.704;2023-03-08T16:15:20;37.78;;;29.00;;
26702;SDS011;14316;51.074;3.704;2023-03-08T16:17:46;34.63;;;29.13;;